.
WxDataArchive / Data Records for 2011-07-14
2011-07-13 July 2011 2011-07-15

Data Records for Thursday, 14 July 2011

Time	Temp	Chill	HIndex	Humid	Dewpt	 Wind 	HiWind	WindDir	Rain 	Barom 
-----	----	-----	------	-----	-----	------	------	-------	-----	----- 
00:00	68.9	68.9	68.9	62	55.3	0	0	---	0.00	30.036 
00:05	68.4	68.4	68.4	63	55.3	0	0	---	0.00	30.036 
00:10	68.3	68.3	68.3	64	55.6	0	1	22	0.00	30.036 
00:15	68.1	68.1	68.1	64	55.5	0	1	22	0.00	30.042 
00:20	68.1	68.1	68.1	64	55.5	0	2	22	0.00	30.042 
00:25	68.3	68.3	68.3	64	55.6	1	4	90	0.00	30.042 
00:30	68.3	68.3	68.3	64	55.6	0	2	90	0.00	30.046 
00:35	68.4	68.4	68.4	64	55.7	1	4	112	0.00	30.046 
00:40	68.4	68.4	68.4	65	56.2	1	2	112	0.00	30.046 
00:45	68.3	68.3	68.3	65	56.1	1	4	112	0.00	30.053 
00:50	68.3	68.3	68.3	65	56.1	1	4	112	0.00	30.053 
00:55	68.3	68.3	68.3	67	56.9	1	5	90	0.00	30.053 
01:00	68.1	68.1	68.1	67	56.7	1	4	68	0.00	30.059 
01:05	68.3	68.3	68.3	68	57.3	2	6	68	0.00	30.059 
01:10	68.1	68.1	68.1	69	57.5	2	3	68	0.00	30.059 
01:15	68.1	68.1	68.1	69	57.5	1	4	68	0.00	30.061 
01:20	68.1	68.1	68.1	69	57.5	1	4	90	0.00	30.061 
01:25	67.9	67.9	67.9	69	57.3	1	6	90	0.00	30.061 
01:30	67.8	67.8	67.8	70	57.6	1	5	90	0.00	30.061 
01:35	67.8	67.8	67.8	69	57.2	2	4	45	0.00	30.061 
01:40	67.8	67.8	67.8	69	57.2	1	4	112	0.00	30.061 
01:45	67.8	67.8	67.8	70	57.6	0	3	112	0.00	30.061 
01:50	67.6	67.6	67.6	70	57.5	1	4	90	0.00	30.061 
01:55	67.4	67.4	67.4	70	57.3	0	3	90	0.00	30.061 
02:00	67.3	67.3	67.3	70	57.2	0	1	90	0.00	30.060 
02:05	67.3	67.3	67.3	71	57.6	0	3	90	0.00	30.060 
02:10	67.1	67.1	67.1	71	57.4	1	3	90	0.00	30.060 
02:15	66.9	66.9	66.9	71	57.2	0	3	90	0.00	30.061 
02:20	66.8	66.8	66.8	72	57.5	0	2	90	0.00	30.061 
02:25	66.8	66.8	66.8	72	57.5	0	2	90	0.00	30.061 
02:30	66.6	66.6	66.6	72	57.3	1	3	90	0.00	30.059 
02:35	66.4	66.4	66.4	73	57.5	0	2	90	0.00	30.059 
02:40	66.3	66.3	66.3	73	57.4	0	2	90	0.00	30.059 
02:45	66.0	66.0	66.0	73	57.1	0	1	90	0.00	30.057 
02:50	65.8	65.8	65.8	74	57.3	0	1	90	0.00	30.057 
02:55	65.6	65.6	65.6	74	57.1	0	2	90	0.00	30.057 
03:00	65.5	65.5	65.5	74	57.0	0	0	---	0.00	30.055 
03:05	65.3	65.3	65.3	75	57.2	0	0	---	0.00	30.055 
03:10	65.0	65.0	65.0	76	57.2	0	0	---	0.00	30.055 
03:15	64.7	64.7	64.7	76	57.0	0	0	---	0.00	30.055 
03:20	64.3	64.3	64.3	77	56.9	0	0	---	0.00	30.055 
03:25	64.0	64.0	64.0	77	56.6	0	0	---	0.00	30.055 
03:30	63.9	63.9	63.9	77	56.5	0	1	90	0.00	30.056 
03:35	63.7	63.7	63.7	78	56.7	0	1	90	0.00	30.056 
03:40	63.5	63.5	63.5	78	56.5	0	1	90	0.00	30.056 
03:45	63.4	63.4	63.4	78	56.4	0	1	90	0.00	30.050 
03:50	63.4	63.4	63.4	78	56.4	0	1	90	0.00	30.050 
03:55	63.2	63.2	63.2	78	56.2	0	0	---	0.00	30.050 
04:00	63.1	63.1	63.1	78	56.1	0	0	---	0.00	30.046 
04:05	62.7	62.7	62.7	78	55.7	0	0	---	0.00	30.046 
04:10	62.6	62.6	62.6	79	56.0	0	0	---	0.00	30.046 
04:15	62.3	62.3	62.3	80	56.0	0	0	---	0.00	30.049 
04:20	62.0	62.0	62.0	80	55.8	0	0	---	0.00	30.049 
04:25	61.6	61.6	61.6	81	55.7	0	0	---	0.00	30.049 
04:30	61.3	61.3	61.3	81	55.4	0	0	---	0.00	30.053 
04:35	61.2	61.2	61.2	82	55.7	0	0	---	0.00	30.053 
04:40	61.0	61.0	61.0	83	55.8	0	0	---	0.00	30.053 
04:45	60.9	60.9	60.9	84	56.0	0	0	---	0.00	30.050 
04:50	60.7	60.7	60.7	84	55.8	0	0	---	0.00	30.050 
04:55	60.5	60.5	60.5	85	56.0	0	0	---	0.00	30.050 
05:00	60.4	60.4	60.4	84	55.5	0	0	---	0.00	30.055 
05:05	60.4	60.4	60.4	83	55.2	0	0	---	0.00	30.055 
05:10	60.2	60.2	60.2	81	54.3	0	0	---	0.00	30.055 
05:15	60.2	60.2	60.2	78	53.3	0	2	90	0.00	30.057 
05:20	60.2	60.2	60.2	77	53.0	0	0	---	0.00	30.057 
05:25	60.2	60.2	60.2	76	52.6	0	0	---	0.00	30.057 
05:30	60.1	60.1	60.1	76	52.5	0	0	---	0.00	30.056 
05:35	59.9	59.9	59.9	76	52.3	0	0	---	0.00	30.056 
05:40	59.8	59.8	59.8	75	51.9	0	0	---	0.00	30.056 
05:45	59.6	59.6	59.6	75	51.7	0	0	---	0.00	30.063 
05:50	59.5	59.5	59.5	76	51.9	0	0	---	0.00	30.063 
05:55	59.3	59.3	59.3	77	52.1	0	0	---	0.00	30.063 
06:00	59.0	59.0	59.0	77	51.8	0	0	---	0.00	30.059 
06:05	58.9	58.9	58.9	78	52.0	0	0	---	0.00	30.059 
06:10	58.7	58.7	58.7	78	51.9	0	0	---	0.00	30.059 
06:15	58.6	58.6	58.6	79	52.1	0	0	---	0.00	30.068 
06:20	58.6	58.6	58.6	79	52.1	0	0	---	0.00	30.068 
06:25	58.4	58.4	58.4	80	52.3	0	0	---	0.00	30.068 
06:30	58.6	58.6	58.6	80	52.4	0	0	---	0.00	30.068 
06:35	58.6	58.6	58.6	79	52.1	0	0	---	0.00	30.068 
06:40	58.6	58.6	58.6	79	52.1	0	0	---	0.00	30.068 
06:45	58.6	58.6	58.6	79	52.1	0	0	---	0.00	30.067 
06:50	58.7	58.7	58.7	78	51.9	0	3	90	0.00	30.067 
06:55	58.9	58.9	58.9	77	51.7	0	1	90	0.00	30.067 
07:00	59.2	59.2	59.2	76	51.6	0	3	90	0.00	30.064 
07:05	59.5	59.5	59.5	74	51.2	0	2	90	0.00	30.064 
07:10	59.8	59.8	59.8	73	51.1	0	2	90	0.00	30.064 
07:15	60.1	60.1	60.1	73	51.4	0	2	90	0.00	30.066 
07:20	60.4	60.4	60.4	72	51.3	0	1	90	0.00	30.066 
07:25	60.7	60.7	60.7	72	51.6	0	2	90	0.00	30.066 
07:30	61.3	61.3	61.3	70	51.4	0	3	90	0.00	30.075 
07:35	62.0	62.0	62.0	69	51.7	0	3	90	0.00	30.075 
07:40	62.6	62.6	62.6	67	51.5	1	4	90	0.00	30.075 
07:45	63.2	63.2	63.2	67	52.1	0	2	90	0.00	30.077 
07:50	63.7	63.7	63.7	66	52.1	1	4	112	0.00	30.077 
07:55	64.2	64.2	64.2	65	52.2	1	5	112	0.00	30.077 
08:00	64.7	64.7	64.7	66	53.1	1	3	112	0.00	30.076 
08:05	65.0	65.0	65.0	64	52.5	2	7	112	0.00	30.076 
08:10	65.0	65.0	65.0	65	52.9	2	4	90	0.00	30.076 
08:15	64.7	64.7	64.7	67	53.5	2	9	90	0.00	30.072 
08:20	64.2	64.2	64.2	68	53.4	1	4	90	0.00	30.072 
08:25	64.5	64.5	64.5	68	53.7	1	4	90	0.00	30.072 
08:30	64.8	64.8	64.8	67	53.6	2	4	90	0.00	30.072 
08:35	65.3	65.3	65.3	68	54.5	2	4	90	0.00	30.072 
08:40	66.0	66.0	66.0	66	54.3	2	4	90	0.00	30.072 
08:45	66.4	66.4	66.4	66	54.7	1	5	90	0.00	30.076 
08:50	66.8	66.8	66.8	65	54.6	3	5	90	0.00	30.076 
08:55	66.9	66.9	66.9	65	54.7	2	5	90	0.00	30.076 
09:00	66.9	66.9	66.9	67	55.6	2	6	90	0.00	30.080 
09:05	67.3	67.3	67.3	65	55.1	2	6	90	0.00	30.080 
09:10	67.8	67.8	67.8	66	56.0	1	4	90	0.00	30.080 
09:15	68.8	68.8	68.8	64	56.1	0	3	90	0.00	30.081 
09:20	69.1	69.1	69.1	64	56.4	2	6	90	0.00	30.081 
09:25	69.3	69.3	69.3	64	56.6	2	5	90	0.00	30.081 
09:30	69.8	69.8	69.8	64	57.1	1	3	90	0.00	30.077 
09:35	70.1	70.1	70.1	63	56.9	3	5	90	0.00	30.077 
09:40	70.1	70.1	70.1	63	56.9	2	5	112	0.00	30.077 
09:45	70.1	70.1	70.1	65	57.8	2	4	112	0.00	30.077 
09:50	70.6	70.6	70.6	64	57.8	1	3	112	0.00	30.077 
09:55	70.9	70.9	70.9	63	57.7	2	5	112	0.00	30.077 
10:00	71.3	71.3	71.3	64	58.5	1	4	112	0.00	30.076 
10:05	72.1	72.1	72.1	62	58.3	1	4	90	0.00	30.076 
10:10	72.8	72.8	72.8	62	59.0	2	6	90	0.00	30.076 
10:15	73.3	73.3	73.3	60	58.6	2	5	90	0.00	30.071 
10:20	73.7	73.7	73.7	60	58.9	2	5	90	0.00	30.071 
10:25	73.7	73.7	73.7	61	59.4	3	6	68	0.00	30.071 
10:30	73.9	73.9	73.9	61	59.6	2	7	112	0.00	30.064 
10:35	74.0	74.0	74.0	60	59.2	2	5	90	0.00	30.064 
10:40	74.4	74.4	74.4	59	59.1	2	5	90	0.00	30.064 
10:45	74.7	74.7	74.7	59	59.4	2	6	90	0.00	30.063 
10:50	74.9	74.9	74.9	59	59.6	2	6	68	0.00	30.063 
10:55	75.3	75.3	77.7	56	58.5	2	10	90	0.00	30.063 
11:00	75.4	75.4	77.7	56	58.6	2	6	68	0.00	30.062 
11:05	76.0	76.0	78.0	58	60.1	1	4	90	0.00	30.062 
11:10	76.1	76.1	78.1	55	58.7	3	9	112	0.00	30.062 
11:15	76.0	76.0	78.1	54	58.1	3	7	90	0.00	30.061 
11:20	76.0	76.0	78.1	55	58.6	2	5	90	0.00	30.061 
11:25	76.1	76.1	78.1	56	59.2	2	6	112	0.00	30.061 
11:30	76.5	76.5	78.4	57	60.1	1	7	112	0.00	30.056 
11:35	76.7	76.7	78.5	54	58.8	2	6	112	0.00	30.056 
11:40	76.5	76.5	78.4	55	59.1	1	3	90	0.00	30.056 
11:45	76.5	76.5	78.4	54	58.6	2	7	90	0.00	30.050 
11:50	76.5	76.5	78.4	52	57.5	2	5	90	0.00	30.050 
11:55	76.7	76.7	78.5	52	57.7	1	4	90	0.00	30.050 
12:00	76.7	76.7	78.4	51	57.2	2	5	90	0.00	30.048 
12:05	77.0	77.0	78.6	51	57.5	1	4	90	0.00	30.048 
12:10	77.0	77.0	78.6	49	56.4	2	5	90	0.00	30.048 
12:15	76.8	76.8	78.5	49	56.2	2	4	90	0.00	30.050 
12:20	76.8	76.8	78.5	49	56.2	2	4	90	0.00	30.050 
12:25	76.8	76.8	78.5	49	56.2	2	5	68	0.00	30.050 
12:30	77.2	77.2	78.7	50	57.1	1	4	135	0.00	30.047 
12:35	77.9	77.9	79.0	47	56.0	1	3	90	0.00	30.047 
12:40	78.3	78.3	79.2	45	55.2	2	9	112	0.00	30.047 
12:45	78.3	78.3	79.3	47	56.4	1	4	90	0.00	30.045 
12:50	78.5	78.5	79.3	45	55.4	2	6	68	0.00	30.045 
12:55	78.6	78.6	79.5	47	56.7	1	5	90	0.00	30.045 
13:00	79.0	79.0	79.7	46	56.4	1	5	135	0.00	30.042 
13:05	79.8	79.8	80.5	48	58.3	2	6	112	0.00	30.042 
13:10	79.8	79.8	80.0	43	55.3	3	7	90	0.00	30.042 
13:15	80.1	80.1	80.2	42	54.9	0	3	90	0.00	30.037 
13:20	80.1	80.1	80.1	41	54.2	3	7	90	0.00	30.037 
13:25	80.3	80.3	80.2	41	54.4	1	3	112	0.00	30.037 
13:30	80.9	80.9	80.6	40	54.3	2	7	90	0.00	30.038 
13:35	80.7	80.7	80.7	43	56.1	2	6	68	0.00	30.038 
13:40	80.5	80.5	80.6	43	55.9	2	6	90	0.00	30.038 
13:45	80.3	80.3	80.1	39	53.1	3	8	90	0.00	30.033 
13:50	80.5	80.5	80.4	41	54.6	2	6	112	0.00	30.033 
13:55	81.1	81.1	80.7	40	54.5	2	7	68	0.00	30.033 
14:00	81.4	81.4	81.0	40	54.7	2	5	90	0.00	30.032 
14:05	82.0	82.0	81.5	40	55.3	1	4	90	0.00	30.032 
14:10	81.8	81.8	81.2	39	54.4	3	7	90	0.00	30.032 
14:15	81.2	81.2	80.6	38	53.1	3	7	90	0.00	30.030 
14:20	81.1	81.1	80.5	38	53.1	1	4	90	0.00	30.030 
14:25	81.4	81.4	80.8	38	53.3	2	6	112	0.00	30.030 
14:30	81.4	81.4	81.0	40	54.7	2	6	112	0.00	30.029 
14:35	82.0	82.0	81.3	39	54.6	2	6	112	0.00	30.029 
14:40	82.4	82.4	81.4	37	53.5	1	4	112	0.00	30.029 
14:45	82.8	82.8	81.6	35	52.3	2	6	90	0.00	30.028 
14:50	83.0	83.0	81.7	35	52.5	1	3	90	0.00	30.028 
14:55	83.2	83.2	82.0	36	53.4	2	6	90	0.00	30.028 
15:00	83.0	83.0	81.7	35	52.5	1	4	68	0.00	30.022 
15:05	82.6	82.6	81.4	35	52.1	2	5	112	0.00	30.022 
15:10	82.0	82.0	81.2	38	53.9	3	10	90	0.00	30.022 
15:15	82.0	82.0	81.3	39	54.6	2	7	68	0.00	30.023 
15:20	81.8	81.8	81.0	37	53.0	1	4	112	0.00	30.023 
15:25	82.0	82.0	80.9	35	51.6	2	7	112	0.00	30.023 
15:30	82.0	82.0	81.0	36	52.4	3	5	68	0.00	30.021 
15:35	82.2	82.2	81.3	37	53.3	2	5	90	0.00	30.021 
15:40	82.8	82.8	81.9	38	54.6	1	6	90	0.00	30.021 
15:45	83.4	83.4	82.2	36	53.6	1	6	90	0.00	30.014 
15:50	83.0	83.0	81.8	36	53.3	1	5	90	0.00	30.014 
15:55	83.0	83.0	82.0	37	54.0	1	3	112	0.00	30.014 
16:00	82.8	82.8	81.6	35	52.3	2	6	68	0.00	30.010 
16:05	82.8	82.8	81.4	34	51.5	1	5	112	0.00	30.010 
16:10	82.4	82.4	81.3	36	52.7	3	7	90	0.00	30.010 
16:15	81.8	81.8	81.1	38	53.7	3	7	90	0.00	30.006 
16:20	81.2	81.2	80.5	37	52.4	2	5	90	0.00	30.006 
16:25	81.1	81.1	80.4	36	51.6	2	4	135	0.00	30.006 
16:30	80.9	80.9	80.3	37	52.2	2	4	68	0.00	30.002 
16:35	81.1	81.1	80.4	36	51.6	1	3	135	0.00	30.002 
16:40	81.2	81.2	80.4	36	51.7	1	2	68	0.00	30.002 
16:45	81.2	81.2	80.5	37	52.4	1	4	112	0.00	30.002 
16:50	81.2	81.2	80.5	37	52.4	0	1	112	0.00	30.002 
16:55	81.4	81.4	80.7	37	52.6	0	2	112	0.00	30.002 
17:00	81.4	81.4	80.6	36	51.9	1	4	112	0.00	30.000 
17:05	81.4	81.4	80.6	36	51.9	1	3	135	0.00	30.000 
17:10	81.4	81.4	80.5	35	51.1	1	4	135	0.00	30.000 
17:15	81.1	81.1	80.4	36	51.6	1	3	135	0.00	29.997 
17:20	81.2	81.2	80.3	35	50.9	1	3	135	0.00	29.997 
17:25	81.6	81.6	80.6	35	51.3	1	2	135	0.00	29.997 
17:30	81.6	81.6	80.7	36	52.0	1	4	112	0.00	29.992 
17:35	81.4	81.4	80.7	37	52.6	0	2	112	0.00	29.992 
17:40	81.4	81.4	80.7	37	52.6	1	4	112	0.00	29.992 
17:45	81.6	81.6	80.9	38	53.5	2	4	90	0.00	29.987 
17:50	81.6	81.6	80.9	38	53.5	1	4	90	0.00	29.987 
17:55	81.6	81.6	80.9	38	53.5	1	5	90	0.00	29.987 
18:00	81.6	81.6	80.9	38	53.5	1	6	112	0.00	29.985 
18:05	81.4	81.4	80.8	38	53.3	2	4	90	0.00	29.985 
18:10	81.2	81.2	80.7	39	53.9	1	4	90	0.00	29.985 
18:15	81.2	81.2	80.7	39	53.9	0	1	90	0.00	29.975 
18:20	81.4	81.4	81.0	40	54.7	1	4	90	0.00	29.975 
18:25	81.4	81.4	80.9	39	54.0	1	5	90	0.00	29.975 
18:30	81.2	81.2	80.8	40	54.6	2	6	90	0.00	29.972 
18:35	81.1	81.1	80.6	39	53.8	1	6	112	0.00	29.972 
18:40	80.9	80.9	80.5	39	53.6	1	5	90	0.00	29.972 
18:45	80.7	80.7	80.3	39	53.4	2	5	68	0.00	29.971 
18:50	80.7	80.7	80.2	38	52.7	1	3	90	0.00	29.971 
18:55	80.5	80.5	80.1	38	52.5	1	2	90	0.00	29.971 
19:00	80.5	80.5	80.2	39	53.2	1	3	135	0.00	29.962 
19:05	80.3	80.3	80.1	39	53.1	1	4	90	0.00	29.962 
19:10	80.3	80.3	80.1	40	53.8	1	3	135	0.00	29.962 
19:15	80.1	80.1	80.0	40	53.6	0	3	135	0.00	29.958 
19:20	80.1	80.1	80.0	40	53.6	1	4	135	0.00	29.958 
19:25	80.1	80.1	79.9	39	52.9	0	2	90	0.00	29.958 
19:30	80.1	80.1	80.0	40	53.6	0	3	68	0.00	29.962 
19:35	79.9	79.9	79.9	40	53.4	1	3	68	0.00	29.962 
19:40	79.9	79.9	79.8	39	52.7	1	6	112	0.00	29.962 
19:45	79.8	79.8	79.7	39	52.6	1	3	90	0.00	29.961 
19:50	79.6	79.6	79.7	40	53.1	1	3	90	0.00	29.961 
19:55	79.6	79.6	79.7	40	53.1	1	4	90	0.00	29.961 
20:00	79.4	79.4	79.6	41	53.6	1	4	68	0.00	29.959 
20:05	79.4	79.4	79.6	41	53.6	0	1	68	0.00	29.959 
20:10	79.2	79.2	79.5	41	53.4	0	2	68	0.00	29.959 
20:15	79.2	79.2	79.5	42	54.1	0	2	68	0.00	29.955 
20:20	79.0	79.0	79.4	42	53.9	0	1	68	0.00	29.955 
20:25	78.6	78.6	79.2	43	54.2	1	3	158	0.00	29.955 
20:30	78.5	78.5	79.2	44	54.7	0	2	68	0.00	29.954 
20:35	78.3	78.3	79.1	44	54.6	0	3	68	0.00	29.954 
20:40	78.1	78.1	79.0	45	55.0	0	1	68	0.00	29.954 
20:45	77.7	77.7	78.9	46	55.2	0	1	68	0.00	29.962 
20:50	77.4	77.4	78.7	47	55.6	0	2	68	0.00	29.962 
20:55	77.0	77.0	78.5	47	55.2	1	3	68	0.00	29.962 
21:00	76.7	76.7	78.4	48	55.5	0	2	68	0.00	29.958 
21:05	76.3	76.3	78.2	49	55.7	1	2	68	0.00	29.958 
21:10	76.1	76.1	78.1	49	55.5	1	4	68	0.00	29.958 
21:15	76.0	76.0	78.1	50	56.0	0	2	68	0.00	29.961 
21:20	75.6	75.6	77.9	50	55.6	0	2	68	0.00	29.961 
21:25	75.3	75.3	77.7	50	55.4	1	3	68	0.00	29.961 
21:30	74.9	74.9	74.9	51	55.5	1	3	68	0.00	29.959 
21:35	74.7	74.7	74.7	51	55.4	0	1	68	0.00	29.959 
21:40	74.4	74.4	74.4	52	55.6	0	1	68	0.00	29.959 
21:45	74.0	74.0	74.0	52	55.2	0	1	68	0.00	29.965 
21:50	73.7	73.7	73.7	52	55.0	0	2	68	0.00	29.965 
21:55	73.5	73.5	73.5	52	54.8	1	3	68	0.00	29.965 
22:00	73.2	73.2	73.2	53	55.0	1	5	68	0.00	29.969 
22:05	73.0	73.0	73.0	53	54.8	2	4	68	0.00	29.969 
22:10	72.8	72.8	72.8	54	55.2	2	6	90	0.00	29.969 
22:15	72.5	72.5	72.5	54	54.9	1	4	90	0.00	29.969 
22:20	72.3	72.3	72.3	55	55.2	1	4	90	0.00	29.969 
22:25	72.1	72.1	72.1	55	55.0	1	4	90	0.00	29.969 
22:30	72.1	72.1	72.1	55	55.0	2	5	90	0.00	29.977 
22:35	72.0	72.0	72.0	56	55.4	2	4	90	0.00	29.977 
22:40	72.0	72.0	72.0	56	55.4	2	5	90	0.00	29.977 
22:45	71.8	71.8	71.8	56	55.2	1	4	90	0.00	29.983 
22:50	71.6	71.6	71.6	56	55.1	1	4	90	0.00	29.983 
22:55	71.5	71.5	71.5	57	55.5	1	3	90	0.00	29.983 
23:00	71.3	71.3	71.3	57	55.3	1	4	90	0.00	29.983 
23:05	71.1	71.1	71.1	58	55.6	1	3	90	0.00	29.983 
23:10	70.8	70.8	70.8	58	55.3	1	3	90	0.00	29.983 
23:15	70.6	70.6	70.6	59	55.6	1	3	45	0.00	29.982 
23:20	70.4	70.4	70.4	59	55.4	0	2	45	0.00	29.982 
23:25	70.1	70.1	70.1	60	55.6	1	3	45	0.00	29.982 
23:30	69.9	69.9	69.9	61	55.8	1	2	45	0.00	29.982 
23:35	69.6	69.6	69.6	62	56.0	0	3	68	0.00	29.982 
23:40	69.4	69.4	69.4	62	55.8	1	3	68	0.00	29.982 
23:45	69.3	69.3	69.3	63	56.2	0	3	68	0.00	29.984 
23:50	69.1	69.1	69.1	63	56.0	0	1	68	0.00	29.984 
23:55	68.9	68.9	68.9	64	56.2	0	1	68	0.00	29.984 

CoCoRaHS
IN-AL-39
A2 Web Hosting
Creative Commons License
GoDaddy
search engine by freefind advanced

loaded 2018-11-16 23:45:43 • last modified 2010-11-18 10:43:29
Privacy PolicyDisclaimer
• wx.awcolley.com is powered by PmWiki v.2002016 •
• all content (unless otherwise noted) © 2018 A W Colley